createdAt,value
2022-12-14T00:03:53.790Z,95519.59
2022-12-14T00:08:48.216Z,95494.88
2022-12-14T00:13:41.332Z,95497.25
2022-12-14T00:18:33.109Z,95503.22
2022-12-14T00:23:24.816Z,95493.81
2022-12-14T00:28:16.480Z,95494.88
2022-12-14T00:33:08.197Z,95485.97
2022-12-14T00:37:59.843Z,95471.53
2022-12-14T00:42:51.525Z,95480.81
2022-12-14T00:47:43.251Z,95484.44
2022-12-14T00:52:34.943Z,95480.28
2022-12-14T00:57:28.906Z,95485.19
2022-12-14T01:02:20.717Z,95485.56
2022-12-14T01:07:12.444Z,95476.94
2022-12-14T01:12:04.453Z,95474.34
2022-12-14T01:16:56.127Z,95487.31
2022-12-14T01:21:47.908Z,95480.47
2022-12-14T01:26:40.355Z,95473.88
2022-12-14T01:31:38.378Z,95470.38
2022-12-14T01:36:34.325Z,95473.00
2022-12-14T01:41:38.342Z,95471.00
2022-12-14T01:46:59.878Z,95461.84
2022-12-14T01:52:00.163Z,95462.00
2022-12-14T01:56:53.612Z,95466.69
2022-12-14T02:01:46.236Z,95462.28
2022-12-14T02:06:44.007Z,95461.63
2022-12-14T02:12:13.837Z,95455.31
2022-12-14T02:17:08.495Z,95452.56
2022-12-14T02:22:44.211Z,95446.69
2022-12-14T02:28:09.493Z,95437.44
2022-12-14T02:33:35.725Z,95431.53
2022-12-14T02:38:44.954Z,95418.28
2022-12-14T02:44:03.243Z,95404.31
2022-12-14T02:49:14.663Z,95393.63
2022-12-14T02:54:21.240Z,95394.41
2022-12-14T02:59:15.891Z,95396.84
2022-12-14T03:04:07.941Z,95383.38
2022-12-14T03:09:08.192Z,95383.44
2022-12-14T03:14:10.284Z,95394.69
2022-12-14T03:19:30.159Z,95385.94
2022-12-14T03:24:32.354Z,95373.50
2022-12-14T03:29:35.244Z,95360.13
2022-12-14T03:34:38.634Z,95361.34
2022-12-14T03:39:35.735Z,95343.91
2022-12-14T03:44:59.587Z,95358.16
2022-12-14T03:50:08.686Z,95360.31
2022-12-14T03:55:22.401Z,95354.94
2022-12-14T04:00:21.384Z,95344.44
2022-12-14T04:05:28.641Z,95341.63
2022-12-14T04:10:47.223Z,95332.97
2022-12-14T04:16:00.456Z,95328.19
2022-12-14T04:21:10.627Z,95327.31
2022-12-14T04:26:04.856Z,95320.06
2022-12-14T04:31:04.174Z,95317.44
2022-12-14T04:36:01.503Z,95316.41
2022-12-14T04:41:00.728Z,95304.94
2022-12-14T04:46:07.447Z,95297.41
2022-12-14T04:51:07.863Z,95297.19
2022-12-14T04:56:13.897Z,95282.16
2022-12-14T05:01:35.225Z,95275.44
2022-12-14T05:06:40.599Z,95282.41
2022-12-14T05:11:54.503Z,95282.47
2022-12-14T05:16:49.083Z,95266.41
2022-12-14T05:21:48.992Z,95252.97
2022-12-14T05:26:41.902Z,95252.78
2022-12-14T05:31:35.239Z,95240.13
2022-12-14T05:36:27.234Z,95227.22
2022-12-14T05:41:19.985Z,95241.09
2022-12-14T05:46:12.515Z,95219.91
2022-12-14T05:51:10.596Z,95241.28
2022-12-14T05:56:11.546Z,95234.94
2022-12-14T06:01:08.054Z,95216.78
2022-12-14T06:06:15.279Z,95209.09
2022-12-14T06:11:20.632Z,95199.63
2022-12-14T06:16:19.182Z,95208.50
2022-12-14T06:21:12.855Z,95177.03
2022-12-14T06:26:05.464Z,95178.47
2022-12-14T06:30:57.782Z,95190.31
2022-12-14T06:35:50.363Z,95199.25
2022-12-14T06:40:45.859Z,95195.91
2022-12-14T06:45:46.326Z,95189.41
2022-12-14T06:55:44.919Z,95162.03
2022-12-14T07:00:41.588Z,95150.75
2022-12-14T07:05:34.121Z,95148.19
2022-12-14T07:41:59.646Z,95117.50
2022-12-14T09:14:39.817Z,95110.00
2022-12-14T09:34:51.866Z,95131.03
2022-12-14T09:45:16.881Z,95118.53
2022-12-14T11:12:07.620Z,95020.16
2022-12-14T11:17:10.007Z,95024.78
2022-12-14T11:48:27.830Z,95027.06
2022-12-14T12:31:16.418Z,95038.09
2022-12-14T12:58:41.498Z,95006.00
2022-12-14T13:09:02.019Z,94985.22
2022-12-14T13:14:32.908Z,94993.75
2022-12-14T15:18:33.614Z,95069.84
2022-12-14T16:52:10.698Z,95151.25
2022-12-14T20:23:31.499Z,95240.63
2022-12-14T21:55:19.374Z,95277.19
2022-12-14T22:31:04.972Z,95252.88
2022-12-14T22:46:21.925Z,95259.13
2022-12-14T22:56:42.223Z,95277.25
2022-12-14T23:12:11.716Z,95291.06
2022-12-14T23:17:25.342Z,95286.13
2022-12-14T23:22:40.101Z,95274.81
2022-12-14T23:28:02.917Z,95284.16
2022-12-14T23:44:08.836Z,95287.91
2022-12-14T23:49:27.044Z,95280.28
2022-12-14T23:54:40.969Z,95292.44
